sensor_id;sensor_type;location;lat;lon;timestamp;temperature;humidity
73112;HTU21D;61301;51.956;5.876;2023-12-20T00:01:35;12.03;63.69
73112;HTU21D;61301;51.956;5.876;2023-12-20T00:04:02;11.96;63.47
73112;HTU21D;61301;51.956;5.876;2023-12-20T00:06:29;11.89;62.90
73112;HTU21D;61301;51.956;5.876;2023-12-20T00:08:55;11.73;63.02
73112;HTU21D;61301;51.956;5.876;2023-12-20T00:11:21;11.67;63.25
73112;HTU21D;61301;51.956;5.876;2023-12-20T00:13:47;11.61;63.09
73112;HTU21D;61301;51.956;5.876;2023-12-20T00:16:13;11.48;63.16
73112;HTU21D;61301;51.956;5.876;2023-12-20T00:18:39;11.45;63.65
73112;HTU21D;61301;51.956;5.876;2023-12-20T00:21:05;11.47;63.74
73112;HTU21D;61301;51.956;5.876;2023-12-20T00:23:32;11.46;63.72
73112;HTU21D;61301;51.956;5.876;2023-12-20T00:25:58;11.45;63.84
73112;HTU21D;61301;51.956;5.876;2023-12-20T00:28:24;11.43;63.84
73112;HTU21D;61301;51.956;5.876;2023-12-20T00:30:50;11.44;63.97
73112;HTU21D;61301;51.956;5.876;2023-12-20T00:33:16;11.52;63.98
73112;HTU21D;61301;51.956;5.876;2023-12-20T00:35:42;11.52;63.87
73112;HTU21D;61301;51.956;5.876;2023-12-20T00:38:08;11.46;63.77
73112;HTU21D;61301;51.956;5.876;2023-12-20T00:40:34;11.43;64.04
73112;HTU21D;61301;51.956;5.876;2023-12-20T00:43:00;11.38;63.80
73112;HTU21D;61301;51.956;5.876;2023-12-20T00:45:26;11.33;63.89
73112;HTU21D;61301;51.956;5.876;2023-12-20T00:47:52;11.32;63.67
73112;HTU21D;61301;51.956;5.876;2023-12-20T00:50:18;11.26;63.81
73112;HTU21D;61301;51.956;5.876;2023-12-20T00:52:44;11.30;63.83
73112;HTU21D;61301;51.956;5.876;2023-12-20T00:55:10;11.25;63.80
73112;HTU21D;61301;51.956;5.876;2023-12-20T00:57:36;11.25;64.06
73112;HTU21D;61301;51.956;5.876;2023-12-20T01:00:02;11.31;63.75
73112;HTU21D;61301;51.956;5.876;2023-12-20T01:02:28;11.27;63.92
73112;HTU21D;61301;51.956;5.876;2023-12-20T01:04:54;11.29;63.93
73112;HTU21D;61301;51.956;5.876;2023-12-20T01:07:20;11.28;63.60
73112;HTU21D;61301;51.956;5.876;2023-12-20T01:09:47;11.27;63.67
73112;HTU21D;61301;51.956;5.876;2023-12-20T01:12:13;11.23;63.51
73112;HTU21D;61301;51.956;5.876;2023-12-20T01:14:38;11.19;63.40
73112;HTU21D;61301;51.956;5.876;2023-12-20T01:17:05;11.09;63.73
73112;HTU21D;61301;51.956;5.876;2023-12-20T01:19:31;11.09;63.78
73112;HTU21D;61301;51.956;5.876;2023-12-20T01:21:57;11.05;63.98
73112;HTU21D;61301;51.956;5.876;2023-12-20T01:24:23;11.03;63.93
73112;HTU21D;61301;51.956;5.876;2023-12-20T01:26:49;11.02;63.91
73112;HTU21D;61301;51.956;5.876;2023-12-20T01:29:15;11.03;64.08
73112;HTU21D;61301;51.956;5.876;2023-12-20T01:31:41;11.15;64.24
73112;HTU21D;61301;51.956;5.876;2023-12-20T01:34:07;11.15;63.65
73112;HTU21D;61301;51.956;5.876;2023-12-20T01:36:33;11.12;63.92
73112;HTU21D;61301;51.956;5.876;2023-12-20T01:38:59;11.14;63.31
73112;HTU21D;61301;51.956;5.876;2023-12-20T01:41:25;11.10;63.35
73112;HTU21D;61301;51.956;5.876;2023-12-20T01:43:51;10.99;63.23
73112;HTU21D;61301;51.956;5.876;2023-12-20T01:46:20;10.94;63.32
73112;HTU21D;61301;51.956;5.876;2023-12-20T01:48:47;10.95;63.47
73112;HTU21D;61301;51.956;5.876;2023-12-20T01:51:13;10.96;63.49
73112;HTU21D;61301;51.956;5.876;2023-12-20T01:53:39;10.94;63.55
73112;HTU21D;61301;51.956;5.876;2023-12-20T01:56:06;11.00;63.75
73112;HTU21D;61301;51.956;5.876;2023-12-20T01:58:33;11.04;63.31
73112;HTU21D;61301;51.956;5.876;2023-12-20T02:00:59;11.03;63.47
73112;HTU21D;61301;51.956;5.876;2023-12-20T02:03:25;11.08;63.51
73112;HTU21D;61301;51.956;5.876;2023-12-20T02:05:52;11.10;63.39
73112;HTU21D;61301;51.956;5.876;2023-12-20T02:08:18;11.10;63.27
73112;HTU21D;61301;51.956;5.876;2023-12-20T02:10:44;11.04;63.14
73112;HTU21D;61301;51.956;5.876;2023-12-20T02:13:10;11.04;63.20
73112;HTU21D;61301;51.956;5.876;2023-12-20T02:15:36;11.03;63.33
73112;HTU21D;61301;51.956;5.876;2023-12-20T02:18:03;11.13;63.33
73112;HTU21D;61301;51.956;5.876;2023-12-20T02:20:30;11.09;63.08
73112;HTU21D;61301;51.956;5.876;2023-12-20T02:22:56;11.03;63.25
73112;HTU21D;61301;51.956;5.876;2023-12-20T02:25:21;11.08;63.45
73112;HTU21D;61301;51.956;5.876;2023-12-20T02:27:48;11.08;63.55
73112;HTU21D;61301;51.956;5.876;2023-12-20T02:30:15;11.09;63.48
73112;HTU21D;61301;51.956;5.876;2023-12-20T02:32:41;11.11;63.44
73112;HTU21D;61301;51.956;5.876;2023-12-20T02:35:07;11.09;63.50
73112;HTU21D;61301;51.956;5.876;2023-12-20T02:37:33;11.10;63.27
73112;HTU21D;61301;51.956;5.876;2023-12-20T02:39:59;10.99;63.67
73112;HTU21D;61301;51.956;5.876;2023-12-20T02:42:25;10.97;63.73
73112;HTU21D;61301;51.956;5.876;2023-12-20T02:44:51;10.96;63.80
73112;HTU21D;61301;51.956;5.876;2023-12-20T02:47:17;10.89;63.96
73112;HTU21D;61301;51.956;5.876;2023-12-20T02:49:43;10.86;64.13
73112;HTU21D;61301;51.956;5.876;2023-12-20T02:52:09;10.83;64.29
73112;HTU21D;61301;51.956;5.876;2023-12-20T02:54:35;10.81;64.50
73112;HTU21D;61301;51.956;5.876;2023-12-20T02:57:01;10.81;64.64
73112;HTU21D;61301;51.956;5.876;2023-12-20T02:59:27;10.82;64.81
73112;HTU21D;61301;51.956;5.876;2023-12-20T03:01:53;10.85;64.81
73112;HTU21D;61301;51.956;5.876;2023-12-20T03:04:19;10.84;64.79
73112;HTU21D;61301;51.956;5.876;2023-12-20T03:06:45;10.82;64.84
73112;HTU21D;61301;51.956;5.876;2023-12-20T03:09:12;10.77;64.98
73112;HTU21D;61301;51.956;5.876;2023-12-20T03:11:38;10.77;65.01
73112;HTU21D;61301;51.956;5.876;2023-12-20T03:14:03;10.79;65.06
73112;HTU21D;61301;51.956;5.876;2023-12-20T03:16:30;10.82;65.01
73112;HTU21D;61301;51.956;5.876;2023-12-20T03:18:57;10.85;65.02
73112;HTU21D;61301;51.956;5.876;2023-12-20T03:21:23;10.83;64.94
73112;HTU21D;61301;51.956;5.876;2023-12-20T03:23:49;10.82;64.81
73112;HTU21D;61301;51.956;5.876;2023-12-20T03:26:14;10.80;64.91
73112;HTU21D;61301;51.956;5.876;2023-12-20T03:28:40;10.83;64.82
73112;HTU21D;61301;51.956;5.876;2023-12-20T03:31:06;10.81;64.74
73112;HTU21D;61301;51.956;5.876;2023-12-20T03:33:32;10.77;64.70
73112;HTU21D;61301;51.956;5.876;2023-12-20T03:35:58;10.72;64.72
73112;HTU21D;61301;51.956;5.876;2023-12-20T03:38:24;10.71;64.66
73112;HTU21D;61301;51.956;5.876;2023-12-20T03:40:50;10.67;64.70
73112;HTU21D;61301;51.956;5.876;2023-12-20T03:43:16;10.63;64.69
73112;HTU21D;61301;51.956;5.876;2023-12-20T03:45:43;10.59;64.84
73112;HTU21D;61301;51.956;5.876;2023-12-20T03:48:09;10.63;64.93
73112;HTU21D;61301;51.956;5.876;2023-12-20T03:50:35;10.65;64.85
73112;HTU21D;61301;51.956;5.876;2023-12-20T03:53:01;10.67;64.88
73112;HTU21D;61301;51.956;5.876;2023-12-20T03:55:27;10.68;64.79
73112;HTU21D;61301;51.956;5.876;2023-12-20T03:57:53;10.69;64.79
73112;HTU21D;61301;51.956;5.876;2023-12-20T04:00:19;10.67;64.85
73112;HTU21D;61301;51.956;5.876;2023-12-20T04:02:45;10.68;64.88
73112;HTU21D;61301;51.956;5.876;2023-12-20T04:05:11;10.68;64.84
73112;HTU21D;61301;51.956;5.876;2023-12-20T04:07:38;10.69;64.89
73112;HTU21D;61301;51.956;5.876;2023-12-20T04:10:04;10.69;64.97
73112;HTU21D;61301;51.956;5.876;2023-12-20T04:12:30;10.69;64.82
73112;HTU21D;61301;51.956;5.876;2023-12-20T04:14:57;10.71;64.75
73112;HTU21D;61301;51.956;5.876;2023-12-20T04:17:23;10.71;64.81
73112;HTU21D;61301;51.956;5.876;2023-12-20T04:19:50;10.75;64.72
73112;HTU21D;61301;51.956;5.876;2023-12-20T04:22:17;10.73;64.82
73112;HTU21D;61301;51.956;5.876;2023-12-20T04:24:43;10.81;64.80
73112;HTU21D;61301;51.956;5.876;2023-12-20T04:27:10;10.79;64.79
73112;HTU21D;61301;51.956;5.876;2023-12-20T04:29:36;10.84;64.76
73112;HTU21D;61301;51.956;5.876;2023-12-20T04:32:03;10.83;64.77
73112;HTU21D;61301;51.956;5.876;2023-12-20T04:34:29;10.84;64.78
73112;HTU21D;61301;51.956;5.876;2023-12-20T04:36:55;10.88;64.56
73112;HTU21D;61301;51.956;5.876;2023-12-20T04:39:21;10.86;64.60
73112;HTU21D;61301;51.956;5.876;2023-12-20T04:41:47;10.92;64.59
73112;HTU21D;61301;51.956;5.876;2023-12-20T04:44:13;10.96;64.50
73112;HTU21D;61301;51.956;5.876;2023-12-20T04:46:39;10.96;64.44
73112;HTU21D;61301;51.956;5.876;2023-12-20T04:49:05;10.98;64.40
73112;HTU21D;61301;51.956;5.876;2023-12-20T04:51:50;11.04;64.31
73112;HTU21D;61301;51.956;5.876;2023-12-20T04:54:47;10.99;64.31
73112;HTU21D;61301;51.956;5.876;2023-12-20T04:57:13;11.04;64.23
73112;HTU21D;61301;51.956;5.876;2023-12-20T04:59:39;11.08;64.15
73112;HTU21D;61301;51.956;5.876;2023-12-20T05:02:04;11.10;64.15
73112;HTU21D;61301;51.956;5.876;2023-12-20T05:04:30;11.12;64.11
73112;HTU21D;61301;51.956;5.876;2023-12-20T05:06:56;11.14;64.13
73112;HTU21D;61301;51.956;5.876;2023-12-20T05:09:22;11.19;64.08
73112;HTU21D;61301;51.956;5.876;2023-12-20T05:11:48;11.23;63.92
73112;HTU21D;61301;51.956;5.876;2023-12-20T05:14:14;11.31;63.82
73112;HTU21D;61301;51.956;5.876;2023-12-20T05:16:40;11.37;63.51
73112;HTU21D;61301;51.956;5.876;2023-12-20T05:19:06;11.42;63.32
73112;HTU21D;61301;51.956;5.876;2023-12-20T05:21:32;11.45;63.28
73112;HTU21D;61301;51.956;5.876;2023-12-20T05:23:59;11.48;63.21
73112;HTU21D;61301;51.956;5.876;2023-12-20T05:26:25;11.51;63.20
73112;HTU21D;61301;51.956;5.876;2023-12-20T05:28:51;11.56;63.02
73112;HTU21D;61301;51.956;5.876;2023-12-20T05:31:18;11.58;62.91
73112;HTU21D;61301;51.956;5.876;2023-12-20T05:33:44;11.62;62.83
73112;HTU21D;61301;51.956;5.876;2023-12-20T05:36:10;11.63;62.41
73112;HTU21D;61301;51.956;5.876;2023-12-20T05:38:37;11.67;62.24
73112;HTU21D;61301;51.956;5.876;2023-12-20T05:41:03;11.70;61.99
73112;HTU21D;61301;51.956;5.876;2023-12-20T05:43:29;11.70;62.11
73112;HTU21D;61301;51.956;5.876;2023-12-20T05:45:55;11.75;62.06
73112;HTU21D;61301;51.956;5.876;2023-12-20T05:48:21;11.78;61.98
73112;HTU21D;61301;51.956;5.876;2023-12-20T05:50:47;11.74;62.07
73112;HTU21D;61301;51.956;5.876;2023-12-20T05:53:13;11.77;61.96
73112;HTU21D;61301;51.956;5.876;2023-12-20T05:55:39;11.78;61.70
73112;HTU21D;61301;51.956;5.876;2023-12-20T05:58:05;11.79;61.63
73112;HTU21D;61301;51.956;5.876;2023-12-20T06:00:31;11.87;61.52
73112;HTU21D;61301;51.956;5.876;2023-12-20T06:02:57;11.87;61.34
73112;HTU21D;61301;51.956;5.876;2023-12-20T06:05:23;11.85;61.34
73112;HTU21D;61301;51.956;5.876;2023-12-20T06:07:49;11.88;61.46
73112;HTU21D;61301;51.956;5.876;2023-12-20T06:10:16;11.88;61.15
73112;HTU21D;61301;51.956;5.876;2023-12-20T06:12:42;11.91;61.28
73112;HTU21D;61301;51.956;5.876;2023-12-20T06:15:08;11.90;61.15
73112;HTU21D;61301;51.956;5.876;2023-12-20T06:17:34;11.92;61.01
73112;HTU21D;61301;51.956;5.876;2023-12-20T06:20:01;11.91;60.83
73112;HTU21D;61301;51.956;5.876;2023-12-20T06:22:27;11.90;61.12
73112;HTU21D;61301;51.956;5.876;2023-12-20T06:24:53;12.00;60.88
73112;HTU21D;61301;51.956;5.876;2023-12-20T06:27:19;11.92;60.73
73112;HTU21D;61301;51.956;5.876;2023-12-20T06:29:45;11.91;60.94
73112;HTU21D;61301;51.956;5.876;2023-12-20T06:32:11;11.93;60.93
73112;HTU21D;61301;51.956;5.876;2023-12-20T06:34:37;11.93;60.86
73112;HTU21D;61301;51.956;5.876;2023-12-20T06:37:04;11.92;60.95
73112;HTU21D;61301;51.956;5.876;2023-12-20T06:39:30;12.00;60.96
73112;HTU21D;61301;51.956;5.876;2023-12-20T06:41:57;11.98;60.81
73112;HTU21D;61301;51.956;5.876;2023-12-20T06:44:23;12.00;60.60
73112;HTU21D;61301;51.956;5.876;2023-12-20T06:46:49;12.04;60.61
73112;HTU21D;61301;51.956;5.876;2023-12-20T06:49:15;12.04;60.54
73112;HTU21D;61301;51.956;5.876;2023-12-20T06:51:41;12.02;60.36
73112;HTU21D;61301;51.956;5.876;2023-12-20T06:54:07;12.01;60.57
73112;HTU21D;61301;51.956;5.876;2023-12-20T06:56:33;11.98;60.47
73112;HTU21D;61301;51.956;5.876;2023-12-20T06:58:59;11.98;60.35
73112;HTU21D;61301;51.956;5.876;2023-12-20T07:01:25;11.97;60.26
73112;HTU21D;61301;51.956;5.876;2023-12-20T07:03:51;12.00;60.25
73112;HTU21D;61301;51.956;5.876;2023-12-20T07:06:17;12.04;60.10
73112;HTU21D;61301;51.956;5.876;2023-12-20T07:08:43;12.07;59.99
73112;HTU21D;61301;51.956;5.876;2023-12-20T07:11:09;12.10;60.11
73112;HTU21D;61301;51.956;5.876;2023-12-20T07:13:35;12.15;60.06
73112;HTU21D;61301;51.956;5.876;2023-12-20T07:16:01;12.14;59.89
73112;HTU21D;61301;51.956;5.876;2023-12-20T07:18:27;12.14;60.02
73112;HTU21D;61301;51.956;5.876;2023-12-20T07:20:53;12.12;60.16
73112;HTU21D;61301;51.956;5.876;2023-12-20T07:23:20;12.14;60.14
73112;HTU21D;61301;51.956;5.876;2023-12-20T07:25:46;12.15;59.99
73112;HTU21D;61301;51.956;5.876;2023-12-20T07:28:12;12.15;59.91
73112;HTU21D;61301;51.956;5.876;2023-12-20T07:30:39;12.14;60.04
73112;HTU21D;61301;51.956;5.876;2023-12-20T07:33:05;12.13;60.09
73112;HTU21D;61301;51.956;5.876;2023-12-20T07:35:30;12.14;60.12
73112;HTU21D;61301;51.956;5.876;2023-12-20T07:37:56;12.14;60.14
73112;HTU21D;61301;51.956;5.876;2023-12-20T07:40:22;12.12;60.31
73112;HTU21D;61301;51.956;5.876;2023-12-20T07:42:49;12.12;60.40
73112;HTU21D;61301;51.956;5.876;2023-12-20T07:45:15;12.15;60.43
73112;HTU21D;61301;51.956;5.876;2023-12-20T07:47:41;12.13;60.41
73112;HTU21D;61301;51.956;5.876;2023-12-20T07:50:07;12.14;60.37
73112;HTU21D;61301;51.956;5.876;2023-12-20T07:52:33;12.16;60.54
73112;HTU21D;61301;51.956;5.876;2023-12-20T07:54:59;12.16;60.43
73112;HTU21D;61301;51.956;5.876;2023-12-20T07:57:28;12.15;60.52
73112;HTU21D;61301;51.956;5.876;2023-12-20T07:59:55;12.17;60.59
73112;HTU21D;61301;51.956;5.876;2023-12-20T08:02:21;12.15;60.72
73112;HTU21D;61301;51.956;5.876;2023-12-20T08:04:47;12.18;60.64
73112;HTU21D;61301;51.956;5.876;2023-12-20T08:07:13;12.16;60.60
73112;HTU21D;61301;51.956;5.876;2023-12-20T08:09:39;12.20;60.60
73112;HTU21D;61301;51.956;5.876;2023-12-20T08:12:05;12.20;60.66
73112;HTU21D;61301;51.956;5.876;2023-12-20T08:14:31;12.21;60.73
73112;HTU21D;61301;51.956;5.876;2023-12-20T08:16:57;12.23;60.64
73112;HTU21D;61301;51.956;5.876;2023-12-20T08:19:23;12.26;60.26
73112;HTU21D;61301;51.956;5.876;2023-12-20T08:21:49;12.26;60.28
73112;HTU21D;61301;51.956;5.876;2023-12-20T08:24:15;12.26;60.18
73112;HTU21D;61301;51.956;5.876;2023-12-20T08:26:41;12.29;60.22
73112;HTU21D;61301;51.956;5.876;2023-12-20T08:29:07;12.25;60.27
73112;HTU21D;61301;51.956;5.876;2023-12-20T08:31:33;12.26;60.32
73112;HTU21D;61301;51.956;5.876;2023-12-20T08:34:00;12.27;60.30
73112;HTU21D;61301;51.956;5.876;2023-12-20T08:36:25;12.28;60.20
73112;HTU21D;61301;51.956;5.876;2023-12-20T08:38:51;12.23;60.22
73112;HTU21D;61301;51.956;5.876;2023-12-20T08:41:18;12.27;60.24
73112;HTU21D;61301;51.956;5.876;2023-12-20T08:43:44;12.30;60.31
73112;HTU21D;61301;51.956;5.876;2023-12-20T08:46:10;12.31;60.38
73112;HTU21D;61301;51.956;5.876;2023-12-20T08:48:36;12.31;60.26
73112;HTU21D;61301;51.956;5.876;2023-12-20T08:51:03;12.33;60.26
73112;HTU21D;61301;51.956;5.876;2023-12-20T08:53:29;12.32;60.14
73112;HTU21D;61301;51.956;5.876;2023-12-20T08:55:55;12.35;60.32
73112;HTU21D;61301;51.956;5.876;2023-12-20T08:58:23;12.34;60.41
73112;HTU21D;61301;51.956;5.876;2023-12-20T09:00:49;12.37;60.40
73112;HTU21D;61301;51.956;5.876;2023-12-20T09:03:15;12.38;60.36
73112;HTU21D;61301;51.956;5.876;2023-12-20T09:05:41;12.27;60.68
73112;HTU21D;61301;51.956;5.876;2023-12-20T09:08:07;12.29;60.80
73112;HTU21D;61301;51.956;5.876;2023-12-20T09:10:36;12.25;61.25
73112;HTU21D;61301;51.956;5.876;2023-12-20T09:13:03;12.25;61.31
73112;HTU21D;61301;51.956;5.876;2023-12-20T09:15:29;12.27;61.46
73112;HTU21D;61301;51.956;5.876;2023-12-20T09:17:56;12.29;61.38
73112;HTU21D;61301;51.956;5.876;2023-12-20T09:20:22;12.29;61.47
73112;HTU21D;61301;51.956;5.876;2023-12-20T09:22:49;12.32;61.54
73112;HTU21D;61301;51.956;5.876;2023-12-20T09:25:15;12.33;61.59
73112;HTU21D;61301;51.956;5.876;2023-12-20T09:27:43;12.34;61.68
73112;HTU21D;61301;51.956;5.876;2023-12-20T09:30:09;12.31;61.84
73112;HTU21D;61301;51.956;5.876;2023-12-20T09:32:35;12.37;61.93
73112;HTU21D;61301;51.956;5.876;2023-12-20T09:35:02;12.27;62.23
73112;HTU21D;61301;51.956;5.876;2023-12-20T09:37:28;12.28;62.24
73112;HTU21D;61301;51.956;5.876;2023-12-20T09:39:54;12.27;62.42
73112;HTU21D;61301;51.956;5.876;2023-12-20T09:42:55;12.33;62.56
73112;HTU21D;61301;51.956;5.876;2023-12-20T09:45:22;12.16;62.98
73112;HTU21D;61301;51.956;5.876;2023-12-20T09:47:50;12.17;63.02
73112;HTU21D;61301;51.956;5.876;2023-12-20T09:50:18;12.18;63.15
73112;HTU21D;61301;51.956;5.876;2023-12-20T09:52:47;12.13;63.34
73112;HTU21D;61301;51.956;5.876;2023-12-20T09:55:17;12.11;63.53
73112;HTU21D;61301;51.956;5.876;2023-12-20T09:57:43;12.14;63.53
73112;HTU21D;61301;51.956;5.876;2023-12-20T10:00:09;12.10;63.64
73112;HTU21D;61301;51.956;5.876;2023-12-20T10:02:45;12.13;63.58
73112;HTU21D;61301;51.956;5.876;2023-12-20T10:05:16;12.10;63.63
73112;HTU21D;61301;51.956;5.876;2023-12-20T10:07:46;12.10;63.56
73112;HTU21D;61301;51.956;5.876;2023-12-20T10:10:13;12.16;63.60
73112;HTU21D;61301;51.956;5.876;2023-12-20T10:12:39;12.18;63.56
73112;HTU21D;61301;51.956;5.876;2023-12-20T10:15:06;12.23;63.34
73112;HTU21D;61301;51.956;5.876;2023-12-20T10:17:32;12.20;63.24
73112;HTU21D;61301;51.956;5.876;2023-12-20T10:19:58;12.19;63.43
73112;HTU21D;61301;51.956;5.876;2023-12-20T10:22:24;12.16;63.40
73112;HTU21D;61301;51.956;5.876;2023-12-20T10:24:51;12.14;63.44
73112;HTU21D;61301;51.956;5.876;2023-12-20T10:27:18;12.17;63.49
73112;HTU21D;61301;51.956;5.876;2023-12-20T10:29:45;12.18;63.40
73112;HTU21D;61301;51.956;5.876;2023-12-20T10:34:53;12.20;63.53
73112;HTU21D;61301;51.956;5.876;2023-12-20T10:37:19;12.22;63.57
73112;HTU21D;61301;51.956;5.876;2023-12-20T10:39:50;12.27;63.58
73112;HTU21D;61301;51.956;5.876;2023-12-20T10:42:20;12.29;63.47
73112;HTU21D;61301;51.956;5.876;2023-12-20T10:44:47;12.29;63.38
73112;HTU21D;61301;51.956;5.876;2023-12-20T10:47:14;12.27;63.47
73112;HTU21D;61301;51.956;5.876;2023-12-20T10:49:41;12.25;63.54
73112;HTU21D;61301;51.956;5.876;2023-12-20T10:52:08;12.25;63.56
73112;HTU21D;61301;51.956;5.876;2023-12-20T10:54:35;12.26;63.60
73112;HTU21D;61301;51.956;5.876;2023-12-20T10:57:05;12.25;63.57
73112;HTU21D;61301;51.956;5.876;2023-12-20T10:59:33;12.25;63.70
73112;HTU21D;61301;51.956;5.876;2023-12-20T11:02:02;12.28;63.60
73112;HTU21D;61301;51.956;5.876;2023-12-20T11:04:59;12.30;63.64
73112;HTU21D;61301;51.956;5.876;2023-12-20T11:07:33;12.27;63.61
73112;HTU21D;61301;51.956;5.876;2023-12-20T11:10:23;12.29;63.58
73112;HTU21D;61301;51.956;5.876;2023-12-20T11:13:12;12.36;63.54
73112;HTU21D;61301;51.956;5.876;2023-12-20T11:15:41;12.28;63.66
73112;HTU21D;61301;51.956;5.876;2023-12-20T11:18:07;12.31;63.80
73112;HTU21D;61301;51.956;5.876;2023-12-20T11:20:38;12.35;63.95
73112;HTU21D;61301;51.956;5.876;2023-12-20T11:23:05;12.38;63.86
73112;HTU21D;61301;51.956;5.876;2023-12-20T11:25:48;12.50;63.77
73112;HTU21D;61301;51.956;5.876;2023-12-20T11:28:15;12.48;63.63
73112;HTU21D;61301;51.956;5.876;2023-12-20T11:30:46;12.52;63.64
73112;HTU21D;61301;51.956;5.876;2023-12-20T11:33:14;12.53;63.55
73112;HTU21D;61301;51.956;5.876;2023-12-20T11:35:40;12.59;63.43
73112;HTU21D;61301;51.956;5.876;2023-12-20T11:38:10;12.63;63.37
73112;HTU21D;61301;51.956;5.876;2023-12-20T11:40:37;12.62;63.44
73112;HTU21D;61301;51.956;5.876;2023-12-20T11:43:03;12.63;63.37
73112;HTU21D;61301;51.956;5.876;2023-12-20T11:45:31;12.70;63.27
73112;HTU21D;61301;51.956;5.876;2023-12-20T11:47:58;12.72;63.21
73112;HTU21D;61301;51.956;5.876;2023-12-20T11:50:24;12.75;63.11
73112;HTU21D;61301;51.956;5.876;2023-12-20T11:52:52;12.77;63.14
73112;HTU21D;61301;51.956;5.876;2023-12-20T11:55:18;12.81;63.13
73112;HTU21D;61301;51.956;5.876;2023-12-20T11:57:44;12.88;62.95
73112;HTU21D;61301;51.956;5.876;2023-12-20T12:00:14;12.87;63.01
73112;HTU21D;61301;51.956;5.876;2023-12-20T12:02:40;12.94;62.97
73112;HTU21D;61301;51.956;5.876;2023-12-20T12:05:07;12.93;62.85
73112;HTU21D;61301;51.956;5.876;2023-12-20T12:07:34;12.96;62.87
73112;HTU21D;61301;51.956;5.876;2023-12-20T12:10:00;12.99;62.89
73112;HTU21D;61301;51.956;5.876;2023-12-20T12:12:26;13.02;62.38
73112;HTU21D;61301;51.956;5.876;2023-12-20T12:14:54;13.09;61.32
73112;HTU21D;61301;51.956;5.876;2023-12-20T12:17:20;13.18;60.66
73112;HTU21D;61301;51.956;5.876;2023-12-20T12:19:46;13.34;60.24
73112;HTU21D;61301;51.956;5.876;2023-12-20T12:22:15;13.40;59.40
73112;HTU21D;61301;51.956;5.876;2023-12-20T12:24:48;13.53;59.50
73112;HTU21D;61301;51.956;5.876;2023-12-20T12:27:15;13.53;59.12
73112;HTU21D;61301;51.956;5.876;2023-12-20T12:30:02;13.63;59.62
73112;HTU21D;61301;51.956;5.876;2023-12-20T12:32:29;13.51;60.19
73112;HTU21D;61301;51.956;5.876;2023-12-20T12:34:55;13.44;60.63
73112;HTU21D;61301;51.956;5.876;2023-12-20T12:37:22;13.43;60.93
73112;HTU21D;61301;51.956;5.876;2023-12-20T12:39:49;13.34;61.23
73112;HTU21D;61301;51.956;5.876;2023-12-20T12:42:15;13.32;61.43
73112;HTU21D;61301;51.956;5.876;2023-12-20T12:44:41;13.29;61.62
73112;HTU21D;61301;51.956;5.876;2023-12-20T12:47:07;13.25;61.78
73112;HTU21D;61301;51.956;5.876;2023-12-20T12:49:33;13.20;61.95
73112;HTU21D;61301;51.956;5.876;2023-12-20T12:51:59;13.18;62.17
73112;HTU21D;61301;51.956;5.876;2023-12-20T12:54:26;13.15;62.28
73112;HTU21D;61301;51.956;5.876;2023-12-20T12:56:51;13.16;62.32
73112;HTU21D;61301;51.956;5.876;2023-12-20T12:59:18;13.14;62.48
73112;HTU21D;61301;51.956;5.876;2023-12-20T13:01:44;13.11;62.60
73112;HTU21D;61301;51.956;5.876;2023-12-20T13:04:10;13.10;62.78
73112;HTU21D;61301;51.956;5.876;2023-12-20T13:06:37;13.08;62.99
73112;HTU21D;61301;51.956;5.876;2023-12-20T13:09:04;13.12;63.05
73112;HTU21D;61301;51.956;5.876;2023-12-20T13:11:30;13.20;62.91
73112;HTU21D;61301;51.956;5.876;2023-12-20T13:13:59;13.24;62.70
73112;HTU21D;61301;51.956;5.876;2023-12-20T13:16:26;13.25;62.66
73112;HTU21D;61301;51.956;5.876;2023-12-20T13:18:52;13.36;62.44
73112;HTU21D;61301;51.956;5.876;2023-12-20T13:21:18;13.43;61.96
73112;HTU21D;61301;51.956;5.876;2023-12-20T13:23:44;13.51;61.71
73112;HTU21D;61301;51.956;5.876;2023-12-20T13:26:10;13.53;61.57
73112;HTU21D;61301;51.956;5.876;2023-12-20T13:28:36;13.61;61.15
73112;HTU21D;61301;51.956;5.876;2023-12-20T13:31:02;13.63;61.10
73112;HTU21D;61301;51.956;5.876;2023-12-20T13:33:28;13.68;60.33
73112;HTU21D;61301;51.956;5.876;2023-12-20T13:35:54;13.64;59.86
73112;HTU21D;61301;51.956;5.876;2023-12-20T13:38:21;13.68;59.72
73112;HTU21D;61301;51.956;5.876;2023-12-20T13:40:47;13.73;59.67
73112;HTU21D;61301;51.956;5.876;2023-12-20T13:43:13;13.78;59.64
73112;HTU21D;61301;51.956;5.876;2023-12-20T13:45:39;13.81;59.48
73112;HTU21D;61301;51.956;5.876;2023-12-20T13:48:05;13.79;59.49
73112;HTU21D;61301;51.956;5.876;2023-12-20T13:50:31;13.80;59.40
73112;HTU21D;61301;51.956;5.876;2023-12-20T13:52:57;13.79;59.27
73112;HTU21D;61301;51.956;5.876;2023-12-20T13:55:23;13.76;59.04
73112;HTU21D;61301;51.956;5.876;2023-12-20T13:57:51;13.79;59.06
73112;HTU21D;61301;51.956;5.876;2023-12-20T14:00:17;13.81;58.96
73112;HTU21D;61301;51.956;5.876;2023-12-20T14:02:43;13.85;58.79
73112;HTU21D;61301;51.956;5.876;2023-12-20T14:05:09;13.88;58.76
73112;HTU21D;61301;51.956;5.876;2023-12-20T14:07:40;13.91;58.56
73112;HTU21D;61301;51.956;5.876;2023-12-20T14:10:06;13.91;58.78
73112;HTU21D;61301;51.956;5.876;2023-12-20T14:12:32;13.93;58.74
73112;HTU21D;61301;51.956;5.876;2023-12-20T14:15:02;13.86;58.74
73112;HTU21D;61301;51.956;5.876;2023-12-20T14:17:28;13.88;58.59
73112;HTU21D;61301;51.956;5.876;2023-12-20T14:19:54;13.88;58.25
73112;HTU21D;61301;51.956;5.876;2023-12-20T14:22:20;13.86;58.17
73112;HTU21D;61301;51.956;5.876;2023-12-20T14:24:46;13.84;58.31
73112;HTU21D;61301;51.956;5.876;2023-12-20T14:27:12;13.90;58.41
73112;HTU21D;61301;51.956;5.876;2023-12-20T14:29:39;13.89;58.40
73112;HTU21D;61301;51.956;5.876;2023-12-20T14:32:05;13.89;58.43
73112;HTU21D;61301;51.956;5.876;2023-12-20T14:34:32;13.90;58.32
73112;HTU21D;61301;51.956;5.876;2023-12-20T14:36:57;13.89;58.03
73112;HTU21D;61301;51.956;5.876;2023-12-20T14:39:23;13.91;58.41
73112;HTU21D;61301;51.956;5.876;2023-12-20T14:41:49;13.94;58.28
73112;HTU21D;61301;51.956;5.876;2023-12-20T14:44:15;13.94;58.32
73112;HTU21D;61301;51.956;5.876;2023-12-20T14:46:42;13.95;58.17
73112;HTU21D;61301;51.956;5.876;2023-12-20T14:49:08;13.96;57.93
73112;HTU21D;61301;51.956;5.876;2023-12-20T14:51:34;13.95;57.93
73112;HTU21D;61301;51.956;5.876;2023-12-20T14:54:01;13.95;58.15
73112;HTU21D;61301;51.956;5.876;2023-12-20T14:56:28;13.93;58.15
73112;HTU21D;61301;51.956;5.876;2023-12-20T14:58:54;13.91;58.00
73112;HTU21D;61301;51.956;5.876;2023-12-20T15:01:20;13.89;58.15
73112;HTU21D;61301;51.956;5.876;2023-12-20T15:03:47;13.92;58.31
73112;HTU21D;61301;51.956;5.876;2023-12-20T15:06:14;13.91;58.38
73112;HTU21D;61301;51.956;5.876;2023-12-20T15:08:40;13.89;58.00
73112;HTU21D;61301;51.956;5.876;2023-12-20T15:11:06;13.90;58.12
73112;HTU21D;61301;51.956;5.876;2023-12-20T15:13:32;13.93;58.17
73112;HTU21D;61301;51.956;5.876;2023-12-20T15:15:58;13.90;58.00